sensor_id;sensor_type;location;lat;lon;timestamp;pressure;altitude;pressure_sealevel;temperature;humidity
51239;BME280;38154;47.548;18.828;2023-04-08T00:02:03;98899.47;;;2.71;100.00
51239;BME280;38154;47.548;18.828;2023-04-08T00:04:29;98890.78;;;2.68;100.00
51239;BME280;38154;47.548;18.828;2023-04-08T00:06:56;98888.87;;;2.62;100.00
51239;BME280;38154;47.548;18.828;2023-04-08T00:09:22;98888.13;;;2.66;100.00
51239;BME280;38154;47.548;18.828;2023-04-08T00:11:48;98880.97;;;2.57;100.00
51239;BME280;38154;47.548;18.828;2023-04-08T00:14:14;98878.34;;;2.56;100.00
51239;BME280;38154;47.548;18.828;2023-04-08T00:16:40;98879.25;;;2.56;100.00
51239;BME280;38154;47.548;18.828;2023-04-08T00:19:06;98878.28;;;2.54;100.00
51239;BME280;38154;47.548;18.828;2023-04-08T00:21:32;98880.28;;;2.62;100.00
51239;BME280;38154;47.548;18.828;2023-04-08T00:23:57;98880.28;;;2.62;100.00
51239;BME280;38154;47.548;18.828;2023-04-08T00:26:23;98884.66;;;2.64;100.00
51239;BME280;38154;47.548;18.828;2023-04-08T00:28:49;98886.13;;;2.57;100.00
51239;BME280;38154;47.548;18.828;2023-04-08T00:31:15;98884.28;;;2.53;100.00
51239;BME280;38154;47.548;18.828;2023-04-08T00:33:41;98887.72;;;2.54;100.00
51239;BME280;38154;47.548;18.828;2023-04-08T00:36:07;98886.19;;;2.59;100.00
51239;BME280;38154;47.548;18.828;2023-04-08T00:38:33;98888.72;;;2.57;100.00
51239;BME280;38154;47.548;18.828;2023-04-08T00:40:58;98887.56;;;2.49;100.00
51239;BME280;38154;47.548;18.828;2023-04-08T00:43:24;98885.03;;;2.51;100.00
51239;BME280;38154;47.548;18.828;2023-04-08T00:45:50;98887.44;;;2.46;100.00
51239;BME280;38154;47.548;18.828;2023-04-08T00:48:16;98891.91;;;2.50;100.00
51239;BME280;38154;47.548;18.828;2023-04-08T00:50:42;98891.94;;;2.52;100.00
51239;BME280;38154;47.548;18.828;2023-04-08T00:53:08;98895.63;;;2.58;100.00
51239;BME280;38154;47.548;18.828;2023-04-08T00:55:35;98902.41;;;2.56;100.00
51239;BME280;38154;47.548;18.828;2023-04-08T00:58:01;98893.50;;;2.47;100.00
51239;BME280;38154;47.548;18.828;2023-04-08T01:00:28;98899.12;;;2.60;100.00
51239;BME280;38154;47.548;18.828;2023-04-08T01:03:14;98894.69;;;2.56;100.00
51239;BME280;38154;47.548;18.828;2023-04-08T01:08:25;98890.88;;;2.45;100.00
51239;BME280;38154;47.548;18.828;2023-04-08T01:10:53;98888.34;;;2.47;100.00
51239;BME280;38154;47.548;18.828;2023-04-08T01:13:25;98889.50;;;2.55;100.00
51239;BME280;38154;47.548;18.828;2023-04-08T01:15:53;98886.13;;;2.57;100.00
51239;BME280;38154;47.548;18.828;2023-04-08T01:18:20;98891.56;;;2.65;100.00
51239;BME280;38154;47.548;18.828;2023-04-08T01:20:48;98886.19;;;2.59;100.00
51239;BME280;38154;47.548;18.828;2023-04-08T01:26:23;98887.03;;;2.84;100.00
51239;BME280;38154;47.548;18.828;2023-04-08T01:28:52;98887.03;;;2.84;100.00
51239;BME280;38154;47.548;18.828;2023-04-08T01:31:21;98896.81;;;2.68;100.00
51239;BME280;38154;47.548;18.828;2023-04-08T01:33:50;98894.66;;;2.81;100.00
51239;BME280;38154;47.548;18.828;2023-04-08T01:36:17;98893.63;;;2.75;100.00
51239;BME280;38154;47.548;18.828;2023-04-08T01:38:46;98898.25;;;2.86;100.00
51239;BME280;38154;47.548;18.828;2023-04-08T01:41:12;98890.31;;;2.79;100.00
51239;BME280;38154;47.548;18.828;2023-04-08T01:43:39;98897.16;;;2.79;100.00
51239;BME280;38154;47.548;18.828;2023-04-08T01:46:07;98897.78;;;2.72;100.00
51239;BME280;38154;47.548;18.828;2023-04-08T01:48:35;98889.28;;;2.74;100.00
51239;BME280;38154;47.548;18.828;2023-04-08T01:51:02;98888.19;;;2.68;100.00
51239;BME280;38154;47.548;18.828;2023-04-08T01:53:29;98895.41;;;2.52;100.00
51239;BME280;38154;47.548;18.828;2023-04-08T01:56:00;98895.34;;;2.51;100.00
51239;BME280;38154;47.548;18.828;2023-04-08T01:58:31;98892.94;;;2.55;100.00
51239;BME280;38154;47.548;18.828;2023-04-08T02:01:03;98890.41;;;2.57;100.00
51239;BME280;38154;47.548;18.828;2023-04-08T02:03:30;98888.13;;;2.66;100.00
51239;BME280;38154;47.548;18.828;2023-04-08T02:05:56;98891.56;;;2.65;100.00
51239;BME280;38154;47.548;18.828;2023-04-08T02:08:22;98881.53;;;2.49;100.00
51239;BME280;38154;47.548;18.828;2023-04-08T02:10:48;98879.78;;;2.48;100.00
51239;BME280;38154;47.548;18.828;2023-04-08T02:13:13;98889.22;;;2.47;100.00
51239;BME280;38154;47.548;18.828;2023-04-08T02:15:42;98883.56;;;2.57;100.00
51239;BME280;38154;47.548;18.828;2023-04-08T02:18:16;98882.81;;;2.60;100.00
51239;BME280;38154;47.548;18.828;2023-04-08T02:20:50;98890.34;;;2.55;100.00
51239;BME280;38154;47.548;18.828;2023-04-08T02:23:19;98886.47;;;2.67;100.00
51239;BME280;38154;47.548;18.828;2023-04-08T02:25:46;98888.13;;;2.66;100.00
51239;BME280;38154;47.548;18.828;2023-04-08T02:28:13;98889.53;;;2.56;100.00
51239;BME280;38154;47.548;18.828;2023-04-08T02:30:47;98894.94;;;2.64;100.00
51239;BME280;38154;47.548;18.828;2023-04-08T02:33:14;98894.19;;;2.67;100.00
51239;BME280;38154;47.548;18.828;2023-04-08T02:35:40;98892.66;;;2.48;100.00
51239;BME280;38154;47.548;18.828;2023-04-08T02:38:08;98893.78;;;2.56;100.00
51239;BME280;38154;47.548;18.828;2023-04-08T02:40:34;98884.22;;;2.52;100.00
51239;BME280;38154;47.548;18.828;2023-04-08T02:43:01;98885.91;;;2.51;100.00
51239;BME280;38154;47.548;18.828;2023-04-08T02:45:32;98895.34;;;2.51;100.00
51239;BME280;38154;47.548;18.828;2023-04-08T02:48:00;98890.25;;;2.52;100.00
51239;BME280;38154;47.548;18.828;2023-04-08T02:50:26;98885.97;;;2.53;100.00
51239;BME280;38154;47.548;18.828;2023-04-08T02:52:52;98891.44;;;2.62;100.00
51239;BME280;38154;47.548;18.828;2023-04-08T02:55:18;98889.63;;;2.59;100.00
51239;BME280;38154;47.548;18.828;2023-04-08T02:57:46;98892.69;;;2.49;100.00
51239;BME280;38154;47.548;18.828;2023-04-08T03:00:12;98892.41;;;2.66;100.00
51239;BME280;38154;47.548;18.828;2023-04-08T03:02:38;98903.13;;;2.52;100.00
51239;BME280;38154;47.548;18.828;2023-04-08T03:05:04;98896.81;;;2.68;100.00
51239;BME280;38154;47.548;18.828;2023-04-08T03:07:31;98898.78;;;2.75;100.00
51239;BME280;38154;47.548;18.828;2023-04-08T03:09:57;98890.66;;;2.65;100.00
51239;BME280;38154;47.548;18.828;2023-04-08T03:12:23;98895.63;;;2.58;100.00
51239;BME280;38154;47.548;18.828;2023-04-08T03:14:49;98892.19;;;2.59;100.00
51239;BME280;38154;47.548;18.828;2023-04-08T03:17:15;98889.22;;;2.47;100.00
51239;BME280;38154;47.548;18.828;2023-04-08T03:19:41;98901.47;;;2.54;100.00
51239;BME280;38154;47.548;18.828;2023-04-08T03:22:07;98902.34;;;2.55;100.00
51239;BME280;38154;47.548;18.828;2023-04-08T03:24:35;98902.31;;;2.53;100.00
51239;BME280;38154;47.548;18.828;2023-04-08T03:27:01;98900.47;;;2.51;100.00
51239;BME280;38154;47.548;18.828;2023-04-08T03:29:27;98903.91;;;2.50;100.00
51239;BME280;38154;47.548;18.828;2023-04-08T03:31:53;98902.31;;;2.53;100.00
51239;BME280;38154;47.548;18.828;2023-04-08T03:34:19;98908.03;;;2.46;100.00
51239;BME280;38154;47.548;18.828;2023-04-08T03:36:45;98899.62;;;2.50;100.00
51239;BME280;38154;47.548;18.828;2023-04-08T03:39:10;98901.91;;;2.42;100.00
51239;BME280;38154;47.548;18.828;2023-04-08T03:41:36;98905.41;;;2.45;100.00
51239;BME280;38154;47.548;18.828;2023-04-08T03:44:02;98896.37;;;2.32;100.00
51239;BME280;38154;47.548;18.828;2023-04-08T03:46:28;98903.22;;;2.31;100.00
51239;BME280;38154;47.548;18.828;2023-04-08T03:48:54;98904.75;;;2.26;100.00
51239;BME280;38154;47.548;18.828;2023-04-08T03:51:20;98900.38;;;2.23;100.00
51239;BME280;38154;47.548;18.828;2023-04-08T03:53:46;98904.91;;;2.31;100.00
51239;BME280;38154;47.548;18.828;2023-04-08T03:56:14;98905.25;;;2.40;100.00
51239;BME280;38154;47.548;18.828;2023-04-08T03:58:40;98908.69;;;2.40;100.00
51239;BME280;38154;47.548;18.828;2023-04-08T04:01:06;98911.00;;;2.33;100.00
51239;BME280;38154;47.548;18.828;2023-04-08T04:03:32;98916.13;;;2.33;100.00
51239;BME280;38154;47.548;18.828;2023-04-08T04:05:58;98920.34;;;2.31;100.00
51239;BME280;38154;47.548;18.828;2023-04-08T04:08:24;98913.34;;;2.27;100.00
51239;BME280;38154;47.548;18.828;2023-04-08T04:10:50;98920.97;;;2.23;100.00
51239;BME280;38154;47.548;18.828;2023-04-08T04:13:16;98920.91;;;2.22;100.00
51239;BME280;38154;47.548;18.828;2023-04-08T04:15:42;98918.28;;;2.20;100.00
51239;BME280;38154;47.548;18.828;2023-04-08T04:18:08;98927.75;;;2.21;100.00
51239;BME280;38154;47.548;18.828;2023-04-08T04:20:33;98926.97;;;2.24;100.00
51239;BME280;38154;47.548;18.828;2023-04-08T04:23:00;98927.91;;;2.26;100.00
51239;BME280;38154;47.548;18.828;2023-04-08T04:25:26;98933.87;;;2.25;100.00
51239;BME280;38154;47.548;18.828;2023-04-08T04:27:51;98920.84;;;2.20;100.00
51239;BME280;38154;47.548;18.828;2023-04-08T04:30:17;98929.44;;;2.21;100.00
51239;BME280;38154;47.548;18.828;2023-04-08T04:32:44;98926.78;;;2.19;100.00
51239;BME280;38154;47.548;18.828;2023-04-08T04:35:10;98940.50;;;2.18;100.00
51239;BME280;38154;47.548;18.828;2023-04-08T04:37:36;98933.81;;;2.23;100.00
51239;BME280;38154;47.548;18.828;2023-04-08T04:40:03;98940.06;;;2.30;100.00
51239;BME280;38154;47.548;18.828;2023-04-08T04:42:30;98939.09;;;2.27;100.00
51239;BME280;38154;47.548;18.828;2023-04-08T04:44:56;98940.13;;;2.32;100.00
51239;BME280;38154;47.548;18.828;2023-04-08T04:47:22;98926.16;;;2.25;100.00
51239;BME280;38154;47.548;18.828;2023-04-08T04:49:48;98937.81;;;2.15;100.00
51239;BME280;38154;47.548;18.828;2023-04-08T04:52:14;98938.25;;;2.28;100.00
51239;BME280;38154;47.548;18.828;2023-04-08T04:54:39;98937.56;;;2.32;100.00
51239;BME280;38154;47.548;18.828;2023-04-08T04:57:05;98938.25;;;2.28;100.00
51239;BME280;38154;47.548;18.828;2023-04-08T04:59:31;98941.47;;;2.22;100.00
51239;BME280;38154;47.548;18.828;2023-04-08T05:01:57;98936.09;;;2.38;100.00
51239;BME280;38154;47.548;18.828;2023-04-08T05:04:24;98939.94;;;2.51;100.00
51239;BME280;38154;47.548;18.828;2023-04-08T05:06:50;98948.56;;;2.52;100.00
51239;BME280;38154;47.548;18.828;2023-04-08T05:09:16;98941.72;;;2.52;100.00
51239;BME280;38154;47.548;18.828;2023-04-08T05:11:42;98948.34;;;2.46;100.00
51239;BME280;38154;47.548;18.828;2023-04-08T05:14:11;98943.88;;;2.40;100.00
51239;BME280;38154;47.548;18.828;2023-04-08T05:16:37;98941.50;;;2.46;100.00
51239;BME280;38154;47.548;18.828;2023-04-08T05:19:03;98950.06;;;2.45;100.00
51239;BME280;38154;47.548;18.828;2023-04-08T05:21:29;98950.31;;;2.53;100.00
51239;BME280;38154;47.548;18.828;2023-04-08T05:23:57;98955.81;;;2.62;100.00
51239;BME280;38154;47.548;18.828;2023-04-08T05:26:24;98953.16;;;2.60;100.00
51239;BME280;38154;47.548;18.828;2023-04-08T05:28:51;98958.38;;;2.62;100.00
51239;BME280;38154;47.548;18.828;2023-04-08T05:31:18;98963.47;;;2.60;100.00
51239;BME280;38154;47.548;18.828;2023-04-08T05:33:45;98968.84;;;2.67;100.00
51239;BME280;38154;47.548;18.828;2023-04-08T05:36:12;98972.91;;;2.60;100.00
51239;BME280;38154;47.548;18.828;2023-04-08T05:38:38;98972.34;;;2.69;100.00
51239;BME280;38154;47.548;18.828;2023-04-08T05:41:04;98978.19;;;2.65;100.00
51239;BME280;38154;47.548;18.828;2023-04-08T05:43:32;98967.88;;;2.65;100.00
51239;BME280;38154;47.548;18.828;2023-04-08T05:46:05;98980.94;;;2.69;100.00
51239;BME280;38154;47.548;18.828;2023-04-08T05:48:31;98979.19;;;2.68;100.00
51239;BME280;38154;47.548;18.828;2023-04-08T05:50:57;98982.03;;;2.76;100.00
51239;BME280;38154;47.548;18.828;2023-04-08T05:53:22;98984.09;;;2.86;100.00
51239;BME280;38154;47.548;18.828;2023-04-08T05:55:49;98980.66;;;2.86;100.00
51239;BME280;38154;47.548;18.828;2023-04-08T05:58:16;98979.13;;;2.91;100.00
51239;BME280;38154;47.548;18.828;2023-04-08T06:00:42;98984.28;;;2.91;100.00
51239;BME280;38154;47.548;18.828;2023-04-08T06:03:08;98983.72;;;3.00;100.00
51239;BME280;38154;47.548;18.828;2023-04-08T06:05:34;98989.03;;;3.04;100.00
51239;BME280;38154;47.548;18.828;2023-04-08T06:08:00;98988.00;;;2.99;100.00
51239;BME280;38154;47.548;18.828;2023-04-08T06:10:26;98986.47;;;3.04;100.00
51239;BME280;38154;47.548;18.828;2023-04-08T06:12:52;98987.59;;;3.12;100.00
51239;BME280;38154;47.548;18.828;2023-04-08T06:15:17;98990.78;;;3.05;100.00
51239;BME280;38154;47.548;18.828;2023-04-08T06:17:43;98988.22;;;3.05;100.00
51239;BME280;38154;47.548;18.828;2023-04-08T06:20:09;98995.00;;;3.03;100.00
51239;BME280;38154;47.548;18.828;2023-04-08T06:22:35;98988.91;;;3.01;100.00
51239;BME280;38154;47.548;18.828;2023-04-08T06:25:01;98998.78;;;3.13;100.00
51239;BME280;38154;47.548;18.828;2023-04-08T06:27:27;98996.94;;;3.09;100.00
51239;BME280;38154;47.548;18.828;2023-04-08T06:29:53;98996.41;;;3.19;100.00
51239;BME280;38154;47.548;18.828;2023-04-08T06:32:20;99002.37;;;3.18;100.00
51239;BME280;38154;47.548;18.828;2023-04-08T06:34:47;99003.47;;;3.25;100.00
51239;BME280;38154;47.548;18.828;2023-04-08T06:37:13;99003.53;;;3.26;100.00
51239;BME280;38154;47.548;18.828;2023-04-08T06:39:39;99001.00;;;3.28;100.00
51239;BME280;38154;47.548;18.828;2023-04-08T06:42:05;99005.06;;;3.21;100.00
51239;BME280;38154;47.548;18.828;2023-04-08T06:44:32;99006.09;;;3.26;100.00
51239;BME280;38154;47.548;18.828;2023-04-08T06:46:57;99009.13;;;3.39;100.00
51239;BME280;38154;47.548;18.828;2023-04-08T06:49:23;99017.03;;;3.45;100.00
51239;BME280;38154;47.548;18.828;2023-04-08T06:51:49;99012.78;;;3.45;100.00
51239;BME280;38154;47.548;18.828;2023-04-08T06:54:15;99011.06;;;3.46;100.00
51239;BME280;38154;47.548;18.828;2023-04-08T06:56:41;99017.50;;;3.33;100.00
51239;BME280;38154;47.548;18.828;2023-04-08T06:59:07;99018.63;;;3.41;100.00
51239;BME280;38154;47.548;18.828;2023-04-08T07:01:33;99019.44;;;3.40;100.00
51239;BME280;38154;47.548;18.828;2023-04-08T07:03:59;99022.47;;;3.27;100.00
51239;BME280;38154;47.548;18.828;2023-04-08T07:06:26;99022.75;;;3.36;100.00
51239;BME280;38154;47.548;18.828;2023-04-08T07:08:52;99017.50;;;3.33;100.00
51239;BME280;38154;47.548;18.828;2023-04-08T07:11:18;99009.87;;;3.36;100.00
51239;BME280;38154;47.548;18.828;2023-04-08T07:13:44;99026.69;;;3.50;100.00
51239;BME280;38154;47.548;18.828;2023-04-08T07:16:10;99023.16;;;3.48;100.00
51239;BME280;38154;47.548;18.828;2023-04-08T07:18:36;99024.75;;;3.45;100.00
51239;BME280;38154;47.548;18.828;2023-04-08T07:21:02;99025.44;;;3.65;100.00
51239;BME280;38154;47.548;18.828;2023-04-08T07:23:28;99032.41;;;3.67;100.00
51239;BME280;38154;47.548;18.828;2023-04-08T07:25:54;99041.41;;;3.80;100.00
51239;BME280;38154;47.548;18.828;2023-04-08T07:28:20;99042.22;;;4.06;100.00
51239;BME280;38154;47.548;18.828;2023-04-08T07:30:46;99038.34;;;4.19;100.00
51239;BME280;38154;47.548;18.828;2023-04-08T07:33:12;99044.44;;;4.21;100.00
51239;BME280;38154;47.548;18.828;2023-04-08T07:35:38;99059.09;;;4.22;100.00
51239;BME280;38154;47.548;18.828;2023-04-08T07:38:04;99059.59;;;4.12;100.00
51239;BME280;38154;47.548;18.828;2023-04-08T07:40:33;99060.88;;;4.25;100.00
51239;BME280;38154;47.548;18.828;2023-04-08T07:42:59;99061.69;;;4.22;100.00
51239;BME280;38154;47.548;18.828;2023-04-08T07:45:25;99069.13;;;4.13;100.00
51239;BME280;38154;47.548;18.828;2023-04-08T07:47:51;99066.75;;;3.94;100.00
51239;BME280;38154;47.548;18.828;2023-04-08T07:50:17;99064.09;;;3.90;100.00
51239;BME280;38154;47.548;18.828;2023-04-08T07:52:43;99075.44;;;3.70;100.00
51239;BME280;38154;47.548;18.828;2023-04-08T07:55:09;99081.06;;;3.58;100.00
51239;BME280;38154;47.548;18.828;2023-04-08T07:57:34;99081.28;;;3.64;100.00
51239;BME280;38154;47.548;18.828;2023-04-08T08:00:00;99084.38;;;3.80;100.00
51239;BME280;38154;47.548;18.828;2023-04-08T08:02:26;99080.75;;;3.75;100.00
51239;BME280;38154;47.548;18.828;2023-04-08T08:04:52;99087.53;;;3.71;100.00
51239;BME280;38154;47.548;18.828;2023-04-08T08:07:18;99083.78;;;3.88;100.00
51239;BME280;38154;47.548;18.828;2023-04-08T08:09:44;99091.91;;;3.99;100.00
51239;BME280;38154;47.548;18.828;2023-04-08T08:12:10;99090.97;;;3.97;100.00
51239;BME280;38154;47.548;18.828;2023-04-08T08:14:37;99087.19;;;4.13;100.00
51239;BME280;38154;47.548;18.828;2023-04-08T08:17:03;99092.28;;;4.39;100.00
51239;BME280;38154;47.548;18.828;2023-04-08T08:19:29;99086.69;;;4.54;100.00
51239;BME280;38154;47.548;18.828;2023-04-08T08:21:54;99094.56;;;4.57;100.00
51239;BME280;38154;47.548;18.828;2023-04-08T08:24:21;99094.69;;;4.61;100.00
51239;BME280;38154;47.548;18.828;2023-04-08T08:26:47;99094.53;;;4.86;100.00
51239;BME280;38154;47.548;18.828;2023-04-08T08:29:13;99099.59;;;4.82;100.00
51239;BME280;38154;47.548;18.828;2023-04-08T08:31:39;99091.94;;;4.86;100.00
51239;BME280;38154;47.548;18.828;2023-04-08T08:34:05;99101.91;;;5.02;100.00
51239;BME280;38154;47.548;18.828;2023-04-08T08:36:31;99106.81;;;4.93;100.00
51239;BME280;38154;47.548;18.828;2023-04-08T08:38:57;99107.22;;;5.07;100.00
51239;BME280;38154;47.548;18.828;2023-04-08T08:41:23;99106.50;;;5.12;100.00
51239;BME280;38154;47.548;18.828;2023-04-08T08:43:50;99099.06;;;5.23;100.00
51239;BME280;38154;47.548;18.828;2023-04-08T08:46:16;99088.69;;;5.22;100.00
51239;BME280;38154;47.548;18.828;2023-04-08T08:48:44;99100.88;;;5.27;100.00
51239;BME280;38154;47.548;18.828;2023-04-08T08:51:11;99101.84;;;5.31;100.00
51239;BME280;38154;47.548;18.828;2023-04-08T08:53:37;99107.81;;;5.28;100.00
51239;BME280;38154;47.548;18.828;2023-04-08T08:56:04;99122.09;;;5.15;100.00
51239;BME280;38154;47.548;18.828;2023-04-08T08:58:30;99120.00;;;5.02;100.00
51239;BME280;38154;47.548;18.828;2023-04-08T09:00:55;99125.03;;;4.97;100.00
51239;BME280;38154;47.548;18.828;2023-04-08T09:03:24;99123.34;;;4.98;100.00
51239;BME280;38154;47.548;18.828;2023-04-08T09:05:57;99132.25;;;5.09;100.00
51239;BME280;38154;47.548;18.828;2023-04-08T09:11:17;99129.78;;;5.44;100.00
51239;BME280;38154;47.548;18.828;2023-04-08T09:13:44;99135.38;;;5.58;100.00
51239;BME280;38154;47.548;18.828;2023-04-08T09:16:15;99141.75;;;5.72;100.00
51239;BME280;38154;47.548;18.828;2023-04-08T09:18:43;99138.63;;;5.84;100.00
51239;BME280;38154;47.548;18.828;2023-04-08T09:21:12;99138.00;;;5.94;100.00
51239;BME280;38154;47.548;18.828;2023-04-08T09:26:12;99151.66;;;6.21;100.00
51239;BME280;38154;47.548;18.828;2023-04-08T09:28:39;99151.53;;;6.16;100.00
51239;BME280;38154;47.548;18.828;2023-04-08T09:31:21;99155.84;;;6.16;100.00
51239;BME280;38154;47.548;18.828;2023-04-08T09:33:48;99163.66;;;6.17;100.00
51239;BME280;38154;47.548;18.828;2023-04-08T09:36:15;99152.78;;;5.97;100.00
51239;BME280;38154;47.548;18.828;2023-04-08T09:38:42;99162.03;;;6.21;100.00
51239;BME280;38154;47.548;18.828;2023-04-08T09:41:12;99164.69;;;6.24;100.00
51239;BME280;38154;47.548;18.828;2023-04-08T09:43:48;99160.56;;;6.32;100.00
51239;BME280;38154;47.548;18.828;2023-04-08T09:46:16;99157.16;;;6.00;100.00
51239;BME280;38154;47.548;18.828;2023-04-08T09:48:55;99160.00;;;6.09;100.00
51239;BME280;38154;47.548;18.828;2023-04-08T09:51:23;99162.47;;;6.04;100.00
51239;BME280;38154;47.548;18.828;2023-04-08T09:53:57;99167.69;;;5.74;100.00
51239;BME280;38154;47.548;18.828;2023-04-08T09:56:26;99162.75;;;5.83;100.00
51239;BME280;38154;47.548;18.828;2023-04-08T09:59:01;99160.00;;;5.77;100.00
51239;BME280;38154;47.548;18.828;2023-04-08T10:01:36;99159.41;;;5.87;100.00
51239;BME280;38154;47.548;18.828;2023-04-08T10:04:06;99169.50;;;6.10;100.00
51239;BME280;38154;47.548;18.828;2023-04-08T10:06:34;99165.13;;;5.75;100.00
51239;BME280;38154;47.548;18.828;2023-04-08T10:09:01;99169.78;;;5.25;100.00
51239;BME280;38154;47.548;18.828;2023-04-08T10:11:29;99171.53;;;5.26;100.00
51239;BME280;38154;47.548;18.828;2023-04-08T10:13:55;99178.59;;;5.32;100.00
51239;BME280;38154;47.548;18.828;2023-04-08T10:16:25;99177.44;;;5.22;100.00
51239;BME280;38154;47.548;18.828;2023-04-08T10:18:52;99166.28;;;5.23;100.00
51239;BME280;38154;47.548;18.828;2023-04-08T10:21:38;99170.34;;;5.15;100.00
51239;BME280;38154;47.548;18.828;2023-04-08T10:24:09;99179.69;;;5.40;100.00
51239;BME280;38154;47.548;18.828;2023-04-08T10:26:42;99174.91;;;5.54;100.00
51239;BME280;38154;47.548;18.828;2023-04-08T10:31:47;99173.25;;;5.57;100.00
51239;BME280;38154;47.548;18.828;2023-04-08T10:34:16;99172.09;;;5.78;100.00
51239;BME280;38154;47.548;18.828;2023-04-08T10:36:43;99162.72;;;5.82;100.00
51239;BME280;38154;47.548;18.828;2023-04-08T10:39:10;99169.69;;;5.84;100.00
51239;BME280;38154;47.548;18.828;2023-04-08T10:41:48;99173.22;;;5.56;100.00
51239;BME280;38154;47.548;18.828;2023-04-08T10:44:21;99177.66;;;5.60;100.00
51239;BME280;38154;47.548;18.828;2023-04-08T10:46:49;99176.38;;;5.46;100.00
51239;BME280;38154;47.548;18.828;2023-04-08T10:49:15;99171.97;;;5.42;100.00
51239;BME280;38154;47.548;18.828;2023-04-08T10:51:42;99181.69;;;5.50;100.00
51239;BME280;38154;47.548;18.828;2023-04-08T10:54:10;99173.69;;;5.73;100.00
51239;BME280;38154;47.548;18.828;2023-04-08T10:56:48;99179.19;;;5.53;100.00
51239;BME280;38154;47.548;18.828;2023-04-08T10:59:15;99176.34;;;5.44;100.00
51239;BME280;38154;47.548;18.828;2023-04-08T11:01:43;99172.56;;;5.63;100.00
51239;BME280;38154;47.548;18.828;2023-04-08T11:04:13;99177.34;;;5.49;100.00
51239;BME280;38154;47.548;18.828;2023-04-08T11:06:42;99183.09;;;5.39;100.00
51239;BME280;38154;47.548;18.828;2023-04-08T11:09:08;99179.34;;;5.60;100.00
51239;BME280;38154;47.548;18.828;2023-04-08T11:11:34;99170.66;;;5.89;100.00
51239;BME280;38154;47.548;18.828;2023-04-08T11:14:00;99181.41;;;6.02;100.00
51239;BME280;38154;47.548;18.828;2023-04-08T11:16:26;99179.03;;;5.79;100.00
51239;BME280;38154;47.548;18.828;2023-04-08T11:18:54;99172.91;;;6.07;100.00
51239;BME280;38154;47.548;18.828;2023-04-08T11:21:24;99172.06;;;6.43;100.00
51239;BME280;38154;47.548;18.828;2023-04-08T11:23:53;99172.72;;;6.01;100.00
51239;BME280;38154;47.548;18.828;2023-04-08T11:26:20;99172.72;;;5.69;100.00
51239;BME280;38154;47.548;18.828;2023-04-08T11:28:46;99173.44;;;5.64;100.00
51239;BME280;38154;47.548;18.828;2023-04-08T11:31:17;99183.88;;;5.67;100.00
51239;BME280;38154;47.548;18.828;2023-04-08T11:33:45;99177.25;;;5.78;100.00
51239;BME280;38154;47.548;18.828;2023-04-08T11:36:12;99183.28;;;5.45;100.00
51239;BME280;38154;47.548;18.828;2023-04-08T11:38:38;99187.97;;;5.28;100.00
51239;BME280;38154;47.548;18.828;2023-04-08T11:41:05;99190.94;;;5.12;100.00
51239;BME280;38154;47.548;18.828;2023-04-08T11:43:31;99188.00;;;4.99;100.00
51239;BME280;38154;47.548;18.828;2023-04-08T11:45:57;99201.22;;;5.10;100.00
51239;BME280;38154;47.548;18.828;2023-04-08T11:48:23;99199.38;;;5.35;100.00
51239;BME280;38154;47.548;18.828;2023-04-08T11:51:02;99197.44;;;5.58;100.00
51239;BME280;38154;47.548;18.828;2023-04-08T11:53:28;99194.38;;;5.73;100.00
51239;BME280;38154;47.548;18.828;2023-04-08T11:55:54;99187.16;;;5.93;100.00
51239;BME280;38154;47.548;18.828;2023-04-08T11:58:20;99189.97;;;6.01;100.00
51239;BME280;38154;47.548;18.828;2023-04-08T12:00:46;99189.50;;;5.84;100.00
51239;BME280;38154;47.548;18.828;2023-04-08T12:03:13;99192.87;;;5.81;100.00
51239;BME280;38154;47.548;18.828;2023-04-08T12:05:40;99181.69;;;5.82;100.00
51239;BME280;38154;47.548;18.828;2023-04-08T12:08:07;99186.50;;;5.99;100.00
51239;BME280;38154;47.548;18.828;2023-04-08T12:10:32;99184.16;;;6.09;100.00
51239;BME280;38154;47.548;18.828;2023-04-08T12:12:58;99193.47;;;6.03;100.00
51239;BME280;38154;47.548;18.828;2023-04-08T12:15:24;99177.87;;;6.00;100.00
51239;BME280;38154;47.548;18.828;2023-04-08T12:17:50;99180.41;;;5.98;100.00
51239;BME280;38154;47.548;18.828;2023-04-08T12:20:16;99183.84;;;5.97;100.00
51239;BME280;38154;47.548;18.828;2023-04-08T12:22:43;99183.44;;;6.13;100.00
51239;BME280;38154;47.548;18.828;2023-04-08T12:25:09;99180.44;;;6.00;100.00
51239;BME280;38154;47.548;18.828;2023-04-08T12:27:34;99177.25;;;5.78;100.00
51239;BME280;38154;47.548;18.828;2023-04-08T12:30:01;99177.34;;;5.49;100.00
51239;BME280;38154;47.548;18.828;2023-04-08T12:32:28;99182.66;;;5.54;100.00
51239;BME280;38154;47.548;18.828;2023-04-08T12:34:54;99186.37;;;5.64;100.00
51239;BME280;38154;47.548;18.828;2023-04-08T12:37:20;99178.97;;;5.78;100.00
51239;BME280;38154;47.548;18.828;2023-04-08T12:39:46;99175.72;;;5.85;100.00
51239;BME280;38154;47.548;18.828;2023-04-08T12:42:12;99180.69;;;5.77;100.00
51239;BME280;38154;47.548;18.828;2023-04-08T12:44:39;99181.56;;;5.78;100.00
51239;BME280;38154;47.548;18.828;2023-04-08T12:47:04;99179.63;;;6.01;100.00
51239;BME280;38154;47.548;18.828;2023-04-08T12:49:30;99180.84;;;6.13;100.00
51239;BME280;38154;47.548;18.828;2023-04-08T12:51:56;99176.19;;;6.35;100.00
51239;BME280;38154;47.548;18.828;2023-04-08T12:54:22;99178.91;;;6.41;100.00
51239;BME280;38154;47.548;18.828;2023-04-08T12:56:48;99185.47;;;6.63;100.00
51239;BME280;38154;47.548;18.828;2023-04-08T12:59:14;99180.31;;;6.63;100.00
51239;BME280;38154;47.548;18.828;2023-04-08T13:01:41;99182.41;;;6.43;100.00
51239;BME280;38154;47.548;18.828;2023-04-08T13:04:06;99181.25;;;6.30;100.00